createdAt,value
2019-06-10T00:01:44.669Z,20.80
2019-06-10T00:04:15.059Z,20.70
2019-06-10T00:06:45.415Z,20.70
2019-06-10T00:09:15.815Z,20.60
2019-06-10T00:11:46.184Z,20.60
2019-06-10T00:14:16.569Z,20.60
2019-06-10T00:16:46.957Z,20.60
2019-06-10T00:19:17.331Z,20.60
2019-06-10T00:21:47.721Z,20.60
2019-06-10T00:24:21.022Z,20.60
2019-06-10T00:26:51.508Z,20.60
2019-06-10T00:29:22.426Z,20.50
2019-06-10T00:31:54.020Z,20.30
2019-06-10T00:34:27.933Z,20.20
2019-06-10T00:36:59.637Z,20.10
2019-06-10T00:39:31.282Z,19.90
2019-06-10T00:42:03.166Z,19.80
2019-06-10T00:44:33.818Z,19.60
2019-06-10T00:47:06.635Z,19.50
2019-06-10T00:49:36.283Z,19.40
2019-06-10T00:52:07.438Z,19.30
2019-06-10T00:54:37.990Z,19.20
2019-06-10T00:57:09.892Z,19.20
2019-06-10T00:59:41.393Z,19.10
2019-06-10T01:02:14.220Z,19.10
2019-06-10T01:04:44.516Z,19.00
2019-06-10T01:07:15.101Z,18.90
2019-06-10T01:09:46.397Z,18.80
2019-06-10T01:12:16.782Z,18.70
2019-06-10T01:14:47.148Z,18.60
2019-06-10T01:17:17.531Z,18.50
2019-06-10T01:19:47.892Z,18.50
2019-06-10T01:22:18.286Z,18.40
2019-06-10T01:24:50.919Z,18.40
2019-06-10T01:27:21.209Z,18.40
2019-06-10T01:29:51.784Z,18.40
2019-06-10T01:32:22.182Z,18.30
2019-06-10T01:34:52.543Z,18.30
2019-06-10T01:37:22.948Z,18.30
2019-06-10T01:39:53.319Z,18.30
2019-06-10T01:42:23.705Z,18.30
2019-06-10T01:44:54.071Z,18.30
2019-06-10T01:47:24.446Z,18.30
2019-06-10T01:49:54.815Z,18.20
2019-06-10T01:52:25.205Z,18.20
2019-06-10T01:54:55.566Z,18.20
2019-06-10T01:57:25.946Z,18.20
2019-06-10T01:59:56.308Z,18.20
2019-06-10T02:02:26.867Z,18.20
2019-06-10T02:04:57.231Z,18.20
2019-06-10T02:07:27.624Z,18.20
2019-06-10T02:09:57.992Z,18.30
2019-06-10T02:12:31.321Z,18.30
2019-06-10T02:15:01.309Z,18.30
2019-06-10T02:17:31.984Z,18.30
2019-06-10T02:20:02.417Z,18.30
2019-06-10T02:22:32.868Z,18.30
2019-06-10T02:25:03.403Z,18.30
2019-06-10T02:27:33.797Z,18.30
2019-06-10T02:30:14.837Z,18.30
2019-06-10T02:32:38.385Z,18.30
2019-06-10T02:35:15.485Z,18.40
2019-06-10T02:37:44.405Z,18.50
2019-06-10T02:40:18.460Z,18.50
2019-06-10T02:42:50.226Z,18.50
2019-06-10T02:45:30.754Z,18.50
2019-06-10T02:47:53.529Z,18.50
2019-06-10T02:50:53.861Z,18.50
2019-06-10T02:53:30.266Z,18.40
2019-06-10T02:55:55.998Z,18.40
2019-06-10T02:58:33.304Z,18.40
2019-06-10T03:00:58.440Z,18.50
2019-06-10T03:03:39.286Z,18.50
2019-06-10T03:06:05.755Z,18.50
2019-06-10T03:08:36.170Z,18.40
2019-06-10T03:11:05.067Z,18.40
2019-06-10T03:13:35.462Z,18.40
2019-06-10T03:16:20.490Z,18.40
2019-06-10T03:18:52.513Z,18.30
2019-06-10T03:21:24.616Z,18.30
2019-06-10T03:23:55.099Z,18.30
2019-06-10T03:26:25.726Z,18.20
2019-06-10T03:29:08.153Z,18.20
2019-06-10T03:31:43.239Z,18.20
2019-06-10T03:34:14.358Z,18.20
2019-06-10T03:36:43.019Z,18.10
2019-06-10T03:39:13.542Z,18.00
2019-06-10T03:41:43.897Z,18.00
2019-06-10T03:44:14.281Z,17.90
2019-06-10T03:46:44.642Z,17.80
2019-06-10T03:49:15.049Z,17.70
2019-06-10T03:51:45.436Z,17.60
2019-06-10T03:54:17.095Z,17.50
2019-06-10T03:56:47.547Z,17.40
2019-06-10T03:59:19.166Z,17.10
2019-06-10T04:01:49.584Z,16.90
2019-06-10T04:04:22.414Z,16.90
2019-06-10T04:06:53.210Z,16.80
2019-06-10T04:09:25.456Z,16.80
2019-06-10T04:11:55.798Z,16.70
2019-06-10T04:14:38.386Z,16.70
2019-06-10T04:17:08.754Z,16.80
2019-06-10T04:19:39.155Z,16.80
2019-06-10T04:22:09.523Z,16.90
2019-06-10T04:24:39.928Z,16.80
2019-06-10T04:27:12.286Z,16.90
2019-06-10T04:29:42.395Z,16.90
2019-06-10T04:32:13.732Z,16.90
2019-06-10T04:34:44.119Z,16.90
2019-06-10T04:37:14.501Z,17.00
2019-06-10T04:39:44.887Z,16.90
2019-06-10T04:42:15.271Z,17.00
2019-06-10T04:44:45.662Z,16.90
2019-06-10T04:47:16.055Z,16.90
2019-06-10T04:49:46.424Z,16.90
2019-06-10T04:52:16.811Z,16.90
2019-06-10T04:54:47.200Z,16.80
2019-06-10T04:57:18.750Z,16.80
2019-06-10T04:59:49.125Z,16.70
2019-06-10T05:02:22.327Z,16.70
2019-06-10T05:04:53.243Z,16.70
2019-06-10T05:07:25.622Z,16.70
2019-06-10T05:09:55.843Z,16.60
2019-06-10T05:12:26.784Z,16.60
2019-06-10T05:14:58.278Z,16.60
2019-06-10T05:17:29.666Z,16.60
2019-06-10T05:20:02.510Z,16.60
2019-06-10T05:22:33.367Z,16.60
2019-06-10T05:25:05.132Z,16.70
2019-06-10T05:27:35.518Z,16.70
2019-06-10T05:30:27.700Z,16.70
2019-06-10T05:32:58.843Z,16.80
2019-06-10T05:35:31.580Z,16.90
2019-06-10T05:38:02.529Z,17.00
2019-06-10T05:40:34.279Z,17.00
2019-06-10T05:43:05.036Z,17.10
2019-06-10T05:45:54.733Z,17.10
2019-06-10T05:48:25.605Z,17.20
2019-06-10T05:51:02.815Z,17.30
2019-06-10T05:53:29.293Z,17.50
2019-06-10T05:56:02.190Z,17.80
2019-06-10T05:58:34.511Z,17.90
2019-06-10T06:01:04.583Z,18.10
2019-06-10T06:03:36.910Z,18.10
2019-06-10T06:06:07.055Z,18.30
2019-06-10T06:08:37.587Z,18.40
2019-06-10T06:11:07.885Z,18.40
2019-06-10T06:13:38.284Z,18.30
2019-06-10T06:16:08.648Z,18.10
2019-06-10T06:18:39.036Z,18.20
2019-06-10T06:21:22.711Z,18.20
2019-06-10T06:23:43.694Z,18.30
2019-06-10T06:26:16.459Z,18.70
2019-06-10T06:28:46.426Z,19.10
2019-06-10T06:31:16.788Z,19.40
2019-06-10T06:33:47.167Z,19.70
2019-06-10T06:36:17.550Z,19.90
2019-06-10T06:38:48.176Z,20.00
2019-06-10T06:41:18.541Z,20.20
2019-06-10T06:43:48.930Z,20.30
2019-06-10T06:46:19.287Z,20.00
2019-06-10T06:48:49.669Z,19.90
2019-06-10T06:51:35.495Z,19.70
2019-06-10T06:53:56.035Z,19.70
2019-06-10T06:56:24.212Z,19.90
2019-06-10T06:58:54.599Z,20.30
2019-06-10T07:01:26.014Z,20.60
2019-06-10T07:03:56.503Z,21.00
2019-06-10T07:06:27.410Z,21.50
2019-06-10T07:09:04.494Z,21.90
2019-06-10T07:11:38.720Z,22.70
2019-06-10T07:14:10.196Z,22.60
2019-06-10T07:16:45.834Z,22.30
2019-06-10T07:19:13.407Z,22.10
2019-06-10T07:22:02.309Z,22.00
2019-06-10T07:24:15.852Z,22.00
2019-06-10T07:26:52.134Z,21.90
2019-06-10T07:29:18.653Z,21.70
2019-06-10T07:31:51.052Z,21.70
2019-06-10T07:34:27.443Z,21.70
2019-06-10T07:36:57.845Z,21.60
2019-06-10T07:39:28.234Z,21.50
2019-06-10T07:41:58.600Z,21.60
2019-06-10T07:44:28.986Z,21.40
2019-06-10T07:46:59.347Z,21.60
2019-06-10T07:49:32.145Z,22.00
2019-06-10T07:52:14.980Z,22.20
2019-06-10T07:54:34.798Z,22.30
2019-06-10T07:57:05.951Z,22.50
2019-06-10T07:59:37.395Z,22.50
2019-06-10T08:02:08.143Z,22.00
2019-06-10T08:04:39.756Z,22.20
2019-06-10T08:07:12.515Z,22.40
2019-06-10T08:09:44.304Z,22.90
2019-06-10T08:12:15.188Z,22.90
2019-06-10T08:14:45.849Z,23.20
2019-06-10T08:17:16.285Z,23.90
2019-06-10T08:19:50.557Z,24.20
2019-06-10T08:22:31.127Z,24.60
2019-06-10T08:24:52.371Z,25.10
2019-06-10T08:27:22.944Z,25.20
2019-06-10T08:30:13.102Z,25.10
2019-06-10T08:32:25.527Z,24.70
2019-06-10T08:34:55.917Z,24.00
2019-06-10T08:37:27.282Z,24.20
2019-06-10T08:39:57.669Z,24.00
2019-06-10T08:42:28.043Z,24.50
2019-06-10T08:45:00.015Z,25.40
2019-06-10T08:47:32.625Z,26.10
2019-06-10T08:50:02.779Z,25.80
2019-06-10T08:52:49.539Z,25.90
2019-06-10T08:55:07.509Z,26.20
2019-06-10T08:57:38.942Z,25.90
2019-06-10T09:00:15.174Z,25.70
2019-06-10T09:02:45.965Z,25.60
2019-06-10T09:05:20.239Z,25.80
2019-06-10T09:07:54.209Z,25.90
2019-06-10T09:10:23.231Z,25.80
2019-06-10T09:12:54.631Z,25.80
2019-06-10T09:15:26.198Z,25.60
2019-06-10T09:17:56.850Z,26.10
2019-06-10T09:20:27.749Z,26.60
2019-06-10T09:23:15.022Z,26.80
2019-06-10T09:25:32.703Z,27.10
2019-06-10T09:28:02.547Z,27.10
2019-06-10T09:30:34.782Z,28.10
2019-06-10T09:33:05.155Z,28.70
2019-06-10T09:35:35.566Z,28.80
2019-06-10T09:38:05.963Z,29.00
2019-06-10T09:41:01.386Z,29.50
2019-06-10T09:43:33.378Z,30.40
2019-06-10T09:46:04.264Z,32.70
2019-06-10T09:48:34.706Z,34.20
2019-06-10T09:51:05.473Z,34.00
2019-06-10T09:53:46.466Z,34.90
2019-06-10T09:56:12.516Z,33.90
2019-06-10T09:59:03.855Z,34.40
2019-06-10T10:01:34.360Z,35.50
2019-06-10T10:04:06.243Z,35.30
2019-06-10T10:06:38.447Z,35.30
2019-06-10T10:09:08.815Z,34.90
2019-06-10T10:11:39.309Z,34.90
2019-06-10T10:14:15.561Z,36.90
2019-06-10T10:16:48.623Z,38.20
2019-06-10T10:19:15.106Z,37.00
2019-06-10T10:21:49.543Z,37.60
2019-06-10T10:24:17.556Z,37.90
2019-06-10T10:26:50.369Z,38.40
2019-06-10T10:29:20.024Z,37.90
2019-06-10T10:31:52.684Z,36.90
2019-06-10T10:34:23.648Z,36.80
2019-06-10T10:36:57.082Z,36.90
2019-06-10T10:39:27.016Z,36.90
2019-06-10T10:41:57.525Z,36.50
2019-06-10T10:44:27.909Z,32.80
2019-06-10T10:46:58.300Z,32.70
2019-06-10T10:49:28.670Z,31.70
2019-06-10T10:52:02.513Z,31.20
2019-06-10T10:54:36.445Z,31.50
2019-06-10T10:57:04.663Z,30.20
2019-06-10T10:59:35.096Z,29.80
2019-06-10T11:02:08.826Z,29.70
2019-06-10T11:04:58.607Z,29.30
2019-06-10T11:07:29.001Z,29.30
2019-06-10T11:09:59.406Z,29.40
2019-06-10T11:12:54.137Z,29.50
2019-06-10T11:15:43.459Z,29.50
2019-06-10T11:18:14.440Z,29.50
2019-06-10T11:20:45.281Z,29.50
2019-06-10T11:23:16.105Z,29.50
2019-06-10T11:25:47.747Z,29.60
2019-06-10T11:28:18.259Z,29.60
2019-06-10T11:30:49.414Z,29.90
2019-06-10T11:33:22.968Z,30.40
2019-06-10T11:35:55.651Z,30.40
2019-06-10T11:38:25.527Z,32.60
2019-06-10T11:40:58.535Z,32.70
2019-06-10T11:43:28.033Z,34.80
2019-06-10T11:46:04.365Z,35.00
2019-06-10T11:48:32.836Z,34.80
2019-06-10T11:51:04.668Z,34.50
2019-06-10T11:53:35.396Z,33.70
2019-06-10T11:56:06.037Z,33.50
2019-06-10T11:58:36.521Z,33.50
2019-06-10T12:01:06.969Z,33.30
2019-06-10T12:03:37.409Z,34.60
2019-06-10T12:06:07.887Z,33.10
2019-06-10T12:08:38.971Z,32.40
2019-06-10T12:11:09.384Z,32.60
2019-06-10T12:13:42.509Z,33.00
2019-06-10T12:18:44.210Z,33.10
2019-06-10T12:21:14.592Z,32.60
2019-06-10T12:23:44.989Z,31.10
2019-06-10T12:26:15.366Z,31.10
2019-06-10T12:28:45.752Z,31.10
2019-06-10T12:31:16.731Z,30.80
2019-06-10T12:36:17.140Z,30.40
2019-06-10T12:38:47.606Z,30.40
2019-06-10T12:41:17.999Z,30.20
2019-06-10T12:43:48.392Z,30.40
2019-06-10T12:46:19.277Z,30.50
2019-06-10T12:48:49.819Z,30.50
2019-06-10T12:51:22.542Z,30.90
2019-06-10T12:53:53.242Z,31.20
2019-06-10T12:56:23.624Z,31.50
2019-06-10T12:59:09.793Z,31.80
2019-06-10T13:01:38.011Z,32.20
2019-06-10T13:04:09.555Z,32.40
2019-06-10T13:06:42.715Z,32.10
2019-06-10T13:09:13.179Z,31.80
2019-06-10T13:11:43.590Z,31.90
2019-06-10T13:14:14.002Z,31.50
2019-06-10T13:16:44.364Z,31.40
2019-06-10T13:19:18.164Z,31.20
2019-06-10T13:21:48.539Z,30.60
2019-06-10T13:24:22.319Z,31.00
2019-06-10T13:26:52.420Z,31.30
2019-06-10T13:29:24.272Z,31.40
2019-06-10T13:31:55.972Z,31.80
2019-06-10T13:34:27.885Z,31.90
2019-06-10T13:36:58.763Z,31.80
2019-06-10T13:39:29.183Z,31.90
2019-06-10T13:41:59.826Z,32.20
2019-06-10T13:44:32.210Z,32.20
2019-06-10T13:47:08.092Z,32.30
2019-06-10T13:49:45.550Z,32.10
2019-06-10T13:52:16.771Z,31.90
2019-06-10T13:54:48.355Z,31.70
2019-06-10T13:57:18.760Z,31.70
2019-06-10T13:59:49.169Z,32.10
2019-06-10T14:02:19.559Z,32.00
2019-06-10T14:04:49.950Z,31.60
2019-06-10T14:07:23.398Z,31.20
2019-06-10T14:09:53.433Z,30.70
2019-06-10T14:12:24.838Z,30.60
2019-06-10T14:14:55.424Z,30.60
2019-06-10T14:17:25.888Z,30.60
2019-06-10T14:19:56.275Z,30.50
2019-06-10T14:22:26.641Z,30.30
2019-06-10T14:24:57.043Z,30.20
2019-06-10T14:27:27.456Z,29.80
2019-06-10T14:29:58.845Z,29.60
2019-06-10T14:32:29.276Z,29.60
2019-06-10T14:34:59.799Z,29.90
2019-06-10T14:37:38.686Z,29.70
2019-06-10T14:40:03.959Z,29.80
2019-06-10T14:42:34.534Z,29.60
2019-06-10T14:45:07.211Z,29.70
2019-06-10T14:47:37.775Z,29.90
2019-06-10T14:50:13.534Z,30.10
2019-06-10T14:52:42.881Z,30.10
2019-06-10T14:55:16.643Z,30.30
2019-06-10T14:57:46.025Z,30.20
2019-06-10T15:00:38.323Z,30.10
2019-06-10T15:03:09.964Z,29.80
2019-06-10T15:05:43.168Z,29.50
2019-06-10T15:08:15.379Z,29.30
2019-06-10T15:10:44.978Z,29.20
2019-06-10T15:13:16.074Z,28.90
2019-06-10T15:15:47.645Z,28.90
2019-06-10T15:18:20.642Z,28.80
2019-06-10T15:20:53.487Z,28.90
2019-06-10T15:23:23.795Z,28.90
2019-06-10T15:25:57.130Z,29.10
2019-06-10T15:28:26.500Z,28.90
2019-06-10T15:30:56.891Z,29.00
2019-06-10T15:33:27.269Z,28.80
2019-06-10T15:35:57.732Z,28.60
2019-06-10T15:38:28.131Z,28.30
2019-06-10T15:40:58.515Z,28.10
2019-06-10T15:43:28.903Z,28.00
2019-06-10T15:45:59.323Z,27.80
2019-06-10T15:48:29.748Z,27.80
2019-06-10T15:51:02.842Z,27.70
2019-06-10T15:53:32.877Z,27.50
2019-06-10T15:56:16.892Z,27.40
2019-06-10T15:58:35.729Z,27.30
2019-06-10T16:01:27.515Z,27.30
2019-06-10T16:03:59.195Z,27.30
2019-06-10T16:06:29.597Z,27.30
2019-06-10T16:08:59.998Z,27.40
2019-06-10T16:11:30.377Z,27.40
2019-06-10T16:14:02.888Z,27.50
2019-06-10T16:16:33.433Z,27.60
2019-06-10T16:19:03.835Z,27.50
2019-06-10T16:21:34.253Z,27.60
2019-06-10T16:24:04.639Z,27.70
2019-06-10T16:26:35.589Z,27.60
2019-06-10T16:29:06.099Z,27.60
2019-06-10T16:31:36.575Z,27.70
2019-06-10T16:34:07.846Z,27.70
2019-06-10T16:36:38.390Z,27.50
2019-06-10T16:39:09.129Z,27.50
2019-06-10T16:41:43.791Z,27.60
2019-06-10T16:44:15.768Z,27.50
2019-06-10T16:46:47.319Z,27.50
2019-06-10T16:49:19.220Z,27.50
2019-06-10T16:51:51.793Z,27.40
2019-06-10T16:54:24.220Z,27.30
2019-06-10T16:56:57.173Z,27.40
2019-06-10T16:59:27.715Z,27.50
2019-06-10T17:01:58.591Z,27.60
2019-06-10T17:04:30.713Z,27.70
2019-06-10T17:07:02.181Z,27.80
2019-06-10T17:09:32.986Z,28.00
2019-06-10T17:12:03.509Z,28.10
2019-06-10T17:14:33.911Z,28.20
2019-06-10T17:17:04.295Z,28.20
2019-06-10T17:19:34.684Z,28.10
2019-06-10T17:22:05.060Z,28.00
2019-06-10T17:24:35.453Z,28.00
2019-06-10T17:27:05.816Z,27.80
2019-06-10T17:29:36.219Z,27.70
2019-06-10T17:32:06.757Z,27.60
2019-06-10T17:34:37.155Z,27.50
2019-06-10T17:37:07.532Z,27.40
2019-06-10T17:39:37.925Z,27.20
2019-06-10T17:42:08.302Z,27.10
2019-06-10T17:44:38.705Z,26.90
2019-06-10T17:47:09.079Z,26.80
2019-06-10T17:49:41.856Z,26.60
2019-06-10T17:52:12.982Z,26.30
2019-06-10T17:54:43.603Z,26.20
2019-06-10T17:57:13.972Z,26.10
2019-06-10T17:59:44.359Z,25.90
2019-06-10T18:02:14.745Z,25.90
2019-06-10T18:04:45.152Z,25.70
2019-06-10T18:07:15.521Z,25.60
2019-06-10T18:09:45.920Z,25.50
2019-06-10T18:12:16.289Z,25.40
2019-06-10T18:14:46.690Z,25.30
2019-06-10T18:17:17.060Z,25.20
2019-06-10T18:19:47.532Z,25.10
2019-06-10T18:22:17.964Z,25.00
2019-06-10T18:24:48.366Z,24.80
2019-06-10T18:27:18.743Z,24.80
2019-06-10T18:29:49.125Z,24.60
2019-06-10T18:32:19.507Z,24.40
2019-06-10T18:34:52.008Z,24.40
2019-06-10T18:37:42.255Z,24.30
2019-06-10T18:40:14.635Z,24.20
2019-06-10T18:42:45.543Z,24.10
2019-06-10T18:45:16.258Z,24.10
2019-06-10T18:50:17.912Z,23.90
2019-06-10T18:52:48.324Z,23.90
2019-06-10T18:55:19.798Z,23.70
2019-06-10T18:57:50.166Z,23.70
2019-06-10T19:00:22.979Z,23.70
2019-06-10T19:03:09.264Z,23.50
2019-06-10T19:05:26.662Z,23.50
2019-06-10T19:07:57.030Z,23.40
2019-06-10T19:10:27.428Z,23.40
2019-06-10T19:12:58.749Z,23.30
2019-06-10T19:15:29.527Z,23.20
2019-06-10T19:18:02.951Z,23.10
2019-06-10T19:20:35.410Z,23.10
2019-06-10T19:23:04.245Z,23.00
2019-06-10T19:25:37.247Z,22.90
2019-06-10T19:28:06.719Z,22.80
2019-06-10T19:30:39.389Z,22.80
2019-06-10T19:33:12.628Z,22.80
2019-06-10T19:35:43.822Z,22.70
2019-06-10T19:38:15.624Z,22.70
2019-06-10T19:40:46.228Z,22.60
2019-06-10T19:43:16.996Z,22.50
2019-06-10T19:45:47.380Z,22.40
2019-06-10T19:48:17.949Z,22.40
2019-06-10T19:50:51.302Z,22.30
2019-06-10T19:53:22.181Z,22.20
2019-06-10T19:55:53.416Z,22.20
2019-06-10T19:58:24.941Z,22.20
2019-06-10T20:00:56.582Z,22.10
2019-06-10T20:03:27.139Z,22.10
2019-06-10T20:05:57.596Z,22.00
2019-06-10T20:08:27.961Z,22.00
2019-06-10T20:10:59.401Z,22.00
2019-06-10T20:13:32.297Z,22.00
2019-06-10T20:16:02.961Z,22.00
2019-06-10T20:18:33.638Z,22.00
2019-06-10T20:21:03.992Z,22.00
2019-06-10T20:23:35.417Z,22.00
2019-06-10T20:26:05.927Z,22.00
2019-06-10T20:28:36.610Z,21.90
2019-06-10T20:31:07.040Z,21.90
2019-06-10T20:33:39.073Z,21.90
2019-06-10T20:36:17.777Z,21.90
2019-06-10T20:38:46.396Z,21.90
2019-06-10T20:41:14.643Z,21.90
2019-06-10T20:43:47.094Z,21.80
2019-06-10T20:46:17.294Z,21.80
2019-06-10T20:48:51.104Z,21.80
2019-06-10T20:51:22.537Z,21.80
2019-06-10T20:53:53.288Z,21.80
2019-06-10T20:56:24.159Z,21.80
2019-06-10T20:58:54.526Z,21.80
2019-06-10T21:01:25.710Z,21.90
2019-06-10T21:03:56.186Z,21.90
2019-06-10T21:06:32.708Z,21.90
2019-06-10T21:09:09.520Z,21.90
2019-06-10T21:11:40.001Z,21.90
2019-06-10T21:14:12.255Z,21.90
2019-06-10T21:16:42.446Z,21.80
2019-06-10T21:19:12.897Z,21.70
2019-06-10T21:21:45.626Z,21.70
2019-06-10T21:24:15.810Z,21.70
2019-06-10T21:26:47.094Z,21.60
2019-06-10T21:29:25.301Z,21.50
2019-06-10T21:31:55.761Z,21.40
2019-06-10T21:34:26.156Z,21.40
2019-06-10T21:36:56.621Z,21.30
2019-06-10T21:39:27.028Z,21.20
2019-06-10T21:41:57.394Z,21.30
2019-06-10T21:44:28.741Z,21.20
2019-06-10T21:47:02.321Z,21.10
2019-06-10T21:49:42.739Z,21.10
2019-06-10T21:52:13.341Z,21.10
2019-06-10T21:54:45.159Z,21.10
2019-06-10T21:57:17.589Z,21.00
2019-06-10T21:59:48.936Z,21.00
2019-06-10T22:02:19.527Z,21.00
2019-06-10T22:04:53.778Z,21.00
2019-06-10T22:07:23.142Z,20.90
2019-06-10T22:09:55.773Z,20.90
2019-06-10T22:12:26.179Z,20.90
2019-06-10T22:14:56.570Z,21.00
2019-06-10T22:17:26.937Z,21.00
2019-06-10T22:19:57.580Z,21.00
2019-06-10T22:22:28.181Z,21.00
2019-06-10T22:24:58.679Z,20.90
2019-06-10T22:27:29.476Z,20.80
2019-06-10T22:30:02.704Z,20.80
2019-06-10T22:32:34.025Z,20.90
2019-06-10T22:35:06.631Z,20.90
2019-06-10T22:37:36.999Z,21.00
2019-06-10T22:40:07.993Z,21.00
2019-06-10T22:42:38.360Z,21.10
2019-06-10T22:45:13.041Z,21.00
2019-06-10T22:47:42.705Z,21.10
2019-06-10T22:50:13.572Z,21.00
2019-06-10T22:52:44.004Z,20.90
2019-06-10T22:55:14.863Z,20.90
2019-06-10T22:57:45.237Z,20.90
2019-06-10T23:00:16.746Z,20.90
2019-06-10T23:02:47.809Z,20.90
2019-06-10T23:05:19.310Z,20.90
2019-06-10T23:07:50.804Z,20.90
2019-06-10T23:10:22.943Z,20.90
2019-06-10T23:12:55.068Z,20.90
2019-06-10T23:15:25.423Z,20.80
2019-06-10T23:17:57.505Z,20.80
2019-06-10T23:20:28.873Z,20.70
2019-06-10T23:23:00.316Z,20.70
2019-06-10T23:25:32.620Z,20.70
2019-06-10T23:28:02.832Z,20.70
2019-06-10T23:30:33.238Z,20.70
2019-06-10T23:33:03.954Z,20.70
2019-06-10T23:35:34.358Z,20.70
2019-06-10T23:38:05.247Z,20.50
2019-06-10T23:40:35.804Z,20.50
2019-06-10T23:43:06.250Z,20.50
2019-06-10T23:45:36.693Z,20.50
2019-06-10T23:48:07.066Z,20.50
2019-06-10T23:50:37.466Z,20.50
2019-06-10T23:53:08.108Z,20.60
2019-06-10T23:55:39.491Z,20.60
2019-06-10T23:58:13.000Z,20.60
